sensor_id;sensor_type;location;lat;lon;timestamp;P1;durP1;ratioP1;P2;durP2;ratioP2
43803;SDS011;29430;52.924;-2.388;2023-12-04T00:02:40;3.95;;;2.38;;
43803;SDS011;29430;52.924;-2.388;2023-12-04T00:07:32;5.45;;;3.00;;
43803;SDS011;29430;52.924;-2.388;2023-12-04T00:12:23;3.83;;;2.85;;
43803;SDS011;29430;52.924;-2.388;2023-12-04T00:17:15;5.07;;;2.08;;
43803;SDS011;29430;52.924;-2.388;2023-12-04T00:22:07;4.00;;;2.42;;
43803;SDS011;29430;52.924;-2.388;2023-12-04T00:26:58;3.92;;;2.20;;
43803;SDS011;29430;52.924;-2.388;2023-12-04T00:31:50;4.35;;;2.38;;
43803;SDS011;29430;52.924;-2.388;2023-12-04T00:36:42;3.47;;;2.15;;
43803;SDS011;29430;52.924;-2.388;2023-12-04T00:41:33;4.95;;;2.33;;
43803;SDS011;29430;52.924;-2.388;2023-12-04T00:46:27;4.43;;;2.63;;
43803;SDS011;29430;52.924;-2.388;2023-12-04T00:51:20;4.35;;;2.78;;
43803;SDS011;29430;52.924;-2.388;2023-12-04T00:56:11;4.28;;;2.60;;
43803;SDS011;29430;52.924;-2.388;2023-12-04T01:01:03;4.55;;;2.65;;
43803;SDS011;29430;52.924;-2.388;2023-12-04T01:05:55;4.03;;;2.40;;
43803;SDS011;29430;52.924;-2.388;2023-12-04T01:10:47;5.88;;;2.20;;
43803;SDS011;29430;52.924;-2.388;2023-12-04T01:15:39;2.92;;;1.60;;
43803;SDS011;29430;52.924;-2.388;2023-12-04T01:20:30;3.60;;;1.92;;
43803;SDS011;29430;52.924;-2.388;2023-12-04T01:25:24;3.40;;;1.52;;
43803;SDS011;29430;52.924;-2.388;2023-12-04T01:30:16;4.65;;;2.08;;
43803;SDS011;29430;52.924;-2.388;2023-12-04T01:35:08;2.63;;;1.20;;
43803;SDS011;29430;52.924;-2.388;2023-12-04T01:40:00;2.90;;;1.33;;
43803;SDS011;29430;52.924;-2.388;2023-12-04T01:44:52;3.05;;;1.65;;
43803;SDS011;29430;52.924;-2.388;2023-12-04T01:49:44;2.83;;;1.20;;
43803;SDS011;29430;52.924;-2.388;2023-12-04T01:54:36;3.22;;;1.88;;
43803;SDS011;29430;52.924;-2.388;2023-12-04T01:59:28;3.33;;;1.85;;
43803;SDS011;29430;52.924;-2.388;2023-12-04T02:04:20;3.20;;;1.50;;
43803;SDS011;29430;52.924;-2.388;2023-12-04T02:09:13;3.60;;;1.38;;
43803;SDS011;29430;52.924;-2.388;2023-12-04T02:14:07;3.28;;;1.60;;
43803;SDS011;29430;52.924;-2.388;2023-12-04T02:18:59;3.45;;;1.83;;
43803;SDS011;29430;52.924;-2.388;2023-12-04T02:23:52;3.28;;;1.27;;
43803;SDS011;29430;52.924;-2.388;2023-12-04T02:28:46;2.70;;;1.38;;
43803;SDS011;29430;52.924;-2.388;2023-12-04T02:33:43;3.20;;;1.40;;
43803;SDS011;29430;52.924;-2.388;2023-12-04T02:38:37;5.40;;;1.65;;
43803;SDS011;29430;52.924;-2.388;2023-12-04T02:43:29;3.78;;;1.70;;
43803;SDS011;29430;52.924;-2.388;2023-12-04T02:48:21;3.75;;;2.08;;
43803;SDS011;29430;52.924;-2.388;2023-12-04T02:53:13;3.22;;;1.75;;
43803;SDS011;29430;52.924;-2.388;2023-12-04T02:58:04;4.05;;;1.85;;
43803;SDS011;29430;52.924;-2.388;2023-12-04T03:02:56;4.35;;;2.13;;
43803;SDS011;29430;52.924;-2.388;2023-12-04T03:07:47;4.60;;;2.05;;
43803;SDS011;29430;52.924;-2.388;2023-12-04T03:12:39;3.65;;;2.08;;
43803;SDS011;29430;52.924;-2.388;2023-12-04T03:17:31;2.88;;;1.33;;
43803;SDS011;29430;52.924;-2.388;2023-12-04T03:22:23;3.92;;;2.17;;
43803;SDS011;29430;52.924;-2.388;2023-12-04T03:27:15;3.58;;;1.73;;
43803;SDS011;29430;52.924;-2.388;2023-12-04T03:32:07;3.47;;;2.05;;
43803;SDS011;29430;52.924;-2.388;2023-12-04T03:36:58;3.95;;;1.35;;
43803;SDS011;29430;52.924;-2.388;2023-12-04T03:41:50;4.68;;;1.63;;
43803;SDS011;29430;52.924;-2.388;2023-12-04T03:46:42;3.30;;;1.75;;
43803;SDS011;29430;52.924;-2.388;2023-12-04T03:51:33;2.72;;;1.50;;
43803;SDS011;29430;52.924;-2.388;2023-12-04T03:56:25;3.00;;;1.40;;
43803;SDS011;29430;52.924;-2.388;2023-12-04T04:01:18;3.20;;;1.23;;
43803;SDS011;29430;52.924;-2.388;2023-12-04T04:06:09;3.25;;;1.45;;
43803;SDS011;29430;52.924;-2.388;2023-12-04T04:11:01;3.83;;;1.52;;
43803;SDS011;29430;52.924;-2.388;2023-12-04T04:15:53;2.67;;;1.27;;
43803;SDS011;29430;52.924;-2.388;2023-12-04T04:20:45;3.75;;;1.40;;
43803;SDS011;29430;52.924;-2.388;2023-12-04T04:25:37;2.92;;;1.33;;
43803;SDS011;29430;52.924;-2.388;2023-12-04T04:30:28;2.90;;;1.40;;
43803;SDS011;29430;52.924;-2.388;2023-12-04T04:35:20;3.25;;;1.55;;
43803;SDS011;29430;52.924;-2.388;2023-12-04T04:40:12;2.33;;;1.05;;
43803;SDS011;29430;52.924;-2.388;2023-12-04T04:45:04;2.13;;;0.80;;
43803;SDS011;29430;52.924;-2.388;2023-12-04T04:49:56;2.78;;;1.10;;
43803;SDS011;29430;52.924;-2.388;2023-12-04T04:54:47;1.60;;;0.70;;
43803;SDS011;29430;52.924;-2.388;2023-12-04T04:59:39;1.92;;;0.70;;
43803;SDS011;29430;52.924;-2.388;2023-12-04T05:04:31;2.60;;;0.77;;
43803;SDS011;29430;52.924;-2.388;2023-12-04T05:09:23;1.65;;;0.70;;
43803;SDS011;29430;52.924;-2.388;2023-12-04T05:14:15;2.22;;;0.77;;
43803;SDS011;29430;52.924;-2.388;2023-12-04T05:19:07;3.08;;;0.90;;
43803;SDS011;29430;52.924;-2.388;2023-12-04T05:23:59;2.00;;;0.77;;
43803;SDS011;29430;52.924;-2.388;2023-12-04T05:28:50;1.83;;;0.70;;
43803;SDS011;29430;52.924;-2.388;2023-12-04T05:33:42;2.55;;;0.70;;
43803;SDS011;29430;52.924;-2.388;2023-12-04T05:38:35;2.80;;;0.95;;
43803;SDS011;29430;52.924;-2.388;2023-12-04T05:43:27;1.88;;;0.90;;
43803;SDS011;29430;52.924;-2.388;2023-12-04T05:48:19;1.52;;;0.70;;
43803;SDS011;29430;52.924;-2.388;2023-12-04T05:53:11;2.00;;;0.70;;
43803;SDS011;29430;52.924;-2.388;2023-12-04T05:58:02;1.85;;;0.60;;
43803;SDS011;29430;52.924;-2.388;2023-12-04T06:02:54;1.85;;;0.70;;
43803;SDS011;29430;52.924;-2.388;2023-12-04T06:07:46;2.90;;;0.65;;
43803;SDS011;29430;52.924;-2.388;2023-12-04T06:12:38;1.58;;;0.70;;
43803;SDS011;29430;52.924;-2.388;2023-12-04T06:17:30;1.70;;;0.60;;
43803;SDS011;29430;52.924;-2.388;2023-12-04T06:22:21;2.20;;;0.73;;
43803;SDS011;29430;52.924;-2.388;2023-12-04T06:27:17;2.35;;;0.88;;
43803;SDS011;29430;52.924;-2.388;2023-12-04T06:32:11;4.25;;;1.17;;
43803;SDS011;29430;52.924;-2.388;2023-12-04T06:37:03;2.65;;;0.85;;
43803;SDS011;29430;52.924;-2.388;2023-12-04T06:42:03;3.90;;;1.02;;
43803;SDS011;29430;52.924;-2.388;2023-12-04T06:46:55;4.25;;;1.20;;
43803;SDS011;29430;52.924;-2.388;2023-12-04T06:51:53;3.33;;;1.35;;
43803;SDS011;29430;52.924;-2.388;2023-12-04T06:56:45;4.78;;;1.38;;
43803;SDS011;29430;52.924;-2.388;2023-12-04T07:01:37;2.45;;;0.93;;
43803;SDS011;29430;52.924;-2.388;2023-12-04T07:06:28;3.03;;;1.10;;
43803;SDS011;29430;52.924;-2.388;2023-12-04T07:11:20;2.90;;;0.98;;
43803;SDS011;29430;52.924;-2.388;2023-12-04T07:16:12;4.53;;;1.33;;
43803;SDS011;29430;52.924;-2.388;2023-12-04T07:21:04;2.60;;;1.13;;
43803;SDS011;29430;52.924;-2.388;2023-12-04T07:25:55;4.25;;;1.33;;
43803;SDS011;29430;52.924;-2.388;2023-12-04T07:30:47;6.28;;;1.40;;
43803;SDS011;29430;52.924;-2.388;2023-12-04T07:35:39;4.18;;;1.50;;
43803;SDS011;29430;52.924;-2.388;2023-12-04T07:40:30;4.35;;;1.35;;
43803;SDS011;29430;52.924;-2.388;2023-12-04T07:45:23;4.53;;;1.80;;
43803;SDS011;29430;52.924;-2.388;2023-12-04T07:50:15;4.80;;;1.65;;
43803;SDS011;29430;52.924;-2.388;2023-12-04T07:55:07;3.15;;;1.50;;
43803;SDS011;29430;52.924;-2.388;2023-12-04T07:59:59;4.82;;;1.70;;
43803;SDS011;29430;52.924;-2.388;2023-12-04T08:04:51;3.97;;;1.42;;
43803;SDS011;29430;52.924;-2.388;2023-12-04T08:09:42;4.90;;;1.63;;
43803;SDS011;29430;52.924;-2.388;2023-12-04T08:14:34;3.65;;;1.10;;
43803;SDS011;29430;52.924;-2.388;2023-12-04T08:19:26;3.70;;;1.40;;
43803;SDS011;29430;52.924;-2.388;2023-12-04T08:24:18;4.72;;;1.05;;
43803;SDS011;29430;52.924;-2.388;2023-12-04T08:29:09;2.55;;;0.82;;
43803;SDS011;29430;52.924;-2.388;2023-12-04T08:34:01;2.75;;;1.10;;
43803;SDS011;29430;52.924;-2.388;2023-12-04T08:38:53;2.55;;;0.90;;
43803;SDS011;29430;52.924;-2.388;2023-12-04T08:43:45;2.17;;;0.88;;
43803;SDS011;29430;52.924;-2.388;2023-12-04T08:48:37;2.33;;;0.80;;
43803;SDS011;29430;52.924;-2.388;2023-12-04T08:53:29;2.05;;;0.80;;
43803;SDS011;29430;52.924;-2.388;2023-12-04T08:58:21;1.98;;;0.80;;
43803;SDS011;29430;52.924;-2.388;2023-12-04T09:03:13;2.40;;;0.80;;
43803;SDS011;29430;52.924;-2.388;2023-12-04T09:08:16;2.20;;;0.70;;
43803;SDS011;29430;52.924;-2.388;2023-12-04T09:13:11;1.67;;;0.60;;
43803;SDS011;29430;52.924;-2.388;2023-12-04T09:18:03;2.72;;;0.63;;
43803;SDS011;29430;52.924;-2.388;2023-12-04T09:22:55;1.83;;;0.63;;
43803;SDS011;29430;52.924;-2.388;2023-12-04T09:27:56;1.50;;;0.60;;
43803;SDS011;29430;52.924;-2.388;2023-12-04T09:32:48;2.33;;;0.80;;
43803;SDS011;29430;52.924;-2.388;2023-12-04T09:37:40;1.55;;;0.60;;
43803;SDS011;29430;52.924;-2.388;2023-12-04T09:42:31;1.60;;;0.60;;
43803;SDS011;29430;52.924;-2.388;2023-12-04T09:47:24;1.90;;;0.60;;
43803;SDS011;29430;52.924;-2.388;2023-12-04T09:52:17;1.52;;;0.52;;
43803;SDS011;29430;52.924;-2.388;2023-12-04T09:57:10;3.17;;;0.60;;
43803;SDS011;29430;52.924;-2.388;2023-12-04T10:02:04;1.60;;;0.60;;
43803;SDS011;29430;52.924;-2.388;2023-12-04T10:06:57;1.75;;;0.50;;
43803;SDS011;29430;52.924;-2.388;2023-12-04T10:11:52;2.65;;;0.50;;
43803;SDS011;29430;52.924;-2.388;2023-12-04T10:16:47;1.43;;;0.50;;
43803;SDS011;29430;52.924;-2.388;2023-12-04T10:21:41;1.23;;;0.40;;
43803;SDS011;29430;52.924;-2.388;2023-12-04T10:26:33;1.70;;;0.50;;
43803;SDS011;29430;52.924;-2.388;2023-12-04T10:31:24;1.40;;;0.50;;
43803;SDS011;29430;52.924;-2.388;2023-12-04T10:36:16;1.20;;;0.52;;
43803;SDS011;29430;52.924;-2.388;2023-12-04T10:41:12;2.35;;;0.50;;
43803;SDS011;29430;52.924;-2.388;2023-12-04T10:46:05;1.50;;;0.40;;
43803;SDS011;29430;52.924;-2.388;2023-12-04T10:50:57;1.40;;;0.50;;
43803;SDS011;29430;52.924;-2.388;2023-12-04T10:55:50;1.00;;;0.40;;
43803;SDS011;29430;52.924;-2.388;2023-12-04T11:00:48;1.65;;;0.50;;
43803;SDS011;29430;52.924;-2.388;2023-12-04T11:05:40;2.05;;;0.65;;
43803;SDS011;29430;52.924;-2.388;2023-12-04T11:10:33;2.08;;;0.55;;
43803;SDS011;29430;52.924;-2.388;2023-12-04T11:15:30;2.17;;;0.50;;
43803;SDS011;29430;52.924;-2.388;2023-12-04T11:20:27;1.92;;;0.70;;
43803;SDS011;29430;52.924;-2.388;2023-12-04T11:25:22;1.90;;;0.60;;
43803;SDS011;29430;52.924;-2.388;2023-12-04T11:30:16;1.65;;;0.57;;
43803;SDS011;29430;52.924;-2.388;2023-12-04T11:35:12;3.33;;;0.50;;
43803;SDS011;29430;52.924;-2.388;2023-12-04T11:40:05;1.85;;;0.75;;
43803;SDS011;29430;52.924;-2.388;2023-12-04T11:44:58;2.03;;;0.73;;
43803;SDS011;29430;52.924;-2.388;2023-12-04T11:49:50;1.90;;;0.70;;
43803;SDS011;29430;52.924;-2.388;2023-12-04T11:54:56;1.95;;;0.70;;
43803;SDS011;29430;52.924;-2.388;2023-12-04T12:00:18;3.67;;;0.80;;
43803;SDS011;29430;52.924;-2.388;2023-12-04T12:05:12;1.92;;;0.60;;
43803;SDS011;29430;52.924;-2.388;2023-12-04T12:10:04;1.88;;;0.60;;
43803;SDS011;29430;52.924;-2.388;2023-12-04T12:14:57;2.63;;;0.80;;
43803;SDS011;29430;52.924;-2.388;2023-12-04T12:19:48;2.00;;;0.60;;
43803;SDS011;29430;52.924;-2.388;2023-12-04T12:24:40;1.73;;;0.73;;
43803;SDS011;29430;52.924;-2.388;2023-12-04T12:29:32;4.20;;;0.90;;
43803;SDS011;29430;52.924;-2.388;2023-12-04T12:34:24;1.45;;;0.60;;
43803;SDS011;29430;52.924;-2.388;2023-12-04T12:39:16;2.00;;;0.60;;
43803;SDS011;29430;52.924;-2.388;2023-12-04T12:44:08;1.42;;;0.52;;
43803;SDS011;29430;52.924;-2.388;2023-12-04T12:49:00;2.47;;;0.70;;
43803;SDS011;29430;52.924;-2.388;2023-12-04T12:53:52;3.05;;;0.70;;
43803;SDS011;29430;52.924;-2.388;2023-12-04T12:58:44;2.08;;;0.70;;
43803;SDS011;29430;52.924;-2.388;2023-12-04T13:03:36;2.30;;;0.85;;
43803;SDS011;29430;52.924;-2.388;2023-12-04T13:08:29;2.10;;;0.60;;
43803;SDS011;29430;52.924;-2.388;2023-12-04T13:13:21;3.42;;;0.77;;
43803;SDS011;29430;52.924;-2.388;2023-12-04T13:18:13;2.05;;;0.77;;
43803;SDS011;29430;52.924;-2.388;2023-12-04T13:23:05;2.88;;;0.80;;
43803;SDS011;29430;52.924;-2.388;2023-12-04T13:27:57;1.77;;;0.70;;
43803;SDS011;29430;52.924;-2.388;2023-12-04T13:32:49;2.15;;;0.77;;
43803;SDS011;29430;52.924;-2.388;2023-12-04T13:37:42;2.38;;;1.30;;
43803;SDS011;29430;52.924;-2.388;2023-12-04T13:42:36;2.42;;;1.20;;
43803;SDS011;29430;52.924;-2.388;2023-12-04T13:47:48;3.65;;;1.38;;
43803;SDS011;29430;52.924;-2.388;2023-12-04T13:52:41;9.10;;;2.15;;
43803;SDS011;29430;52.924;-2.388;2023-12-04T13:57:33;2.97;;;1.20;;
43803;SDS011;29430;52.924;-2.388;2023-12-04T14:02:34;2.63;;;1.08;;
43803;SDS011;29430;52.924;-2.388;2023-12-04T14:07:28;3.13;;;1.27;;
43803;SDS011;29430;52.924;-2.388;2023-12-04T14:12:21;2.60;;;1.10;;
43803;SDS011;29430;52.924;-2.388;2023-12-04T14:17:12;30.50;;;2.45;;
43803;SDS011;29430;52.924;-2.388;2023-12-04T14:22:04;31.67;;;2.25;;
43803;SDS011;29430;52.924;-2.388;2023-12-04T14:26:57;106.90;;;5.45;;
43803;SDS011;29430;52.924;-2.388;2023-12-04T14:31:49;2.65;;;0.60;;
43803;SDS011;29430;52.924;-2.388;2023-12-04T14:36:41;95.45;;;4.35;;
43803;SDS011;29430;52.924;-2.388;2023-12-04T14:41:33;60.50;;;2.78;;
43803;SDS011;29430;52.924;-2.388;2023-12-04T14:46:25;113.53;;;7.13;;
43803;SDS011;29430;52.924;-2.388;2023-12-04T14:51:17;1.92;;;0.70;;
43803;SDS011;29430;52.924;-2.388;2023-12-04T14:56:11;154.55;;;7.85;;
43803;SDS011;29430;52.924;-2.388;2023-12-04T15:01:19;29.08;;;4.25;;
43803;SDS011;29430;52.924;-2.388;2023-12-04T15:06:26;2.65;;;0.90;;
43803;SDS011;29430;52.924;-2.388;2023-12-04T15:11:47;6.20;;;0.95;;
43803;SDS011;29430;52.924;-2.388;2023-12-04T15:16:57;28.92;;;3.97;;
43803;SDS011;29430;52.924;-2.388;2023-12-04T15:22:09;67.55;;;4.40;;
43803;SDS011;29430;52.924;-2.388;2023-12-04T15:27:00;67.13;;;4.95;;
43803;SDS011;29430;52.924;-2.388;2023-12-04T15:31:54;18.73;;;1.67;;
43803;SDS011;29430;52.924;-2.388;2023-12-04T15:36:46;21.77;;;1.92;;
43803;SDS011;29430;52.924;-2.388;2023-12-04T15:41:38;170.05;;;8.98;;
43803;SDS011;29430;52.924;-2.388;2023-12-04T15:46:29;3.95;;;1.23;;
43803;SDS011;29430;52.924;-2.388;2023-12-04T15:51:22;47.78;;;4.05;;
43803;SDS011;29430;52.924;-2.388;2023-12-04T15:56:13;41.58;;;3.60;;
43803;SDS011;29430;52.924;-2.388;2023-12-04T16:01:05;63.25;;;4.63;;
43803;SDS011;29430;52.924;-2.388;2023-12-04T16:05:57;109.47;;;8.10;;
43803;SDS011;29430;52.924;-2.388;2023-12-04T16:10:49;5.45;;;1.77;;
43803;SDS011;29430;52.924;-2.388;2023-12-04T16:15:42;218.65;;;14.95;;
43803;SDS011;29430;52.924;-2.388;2023-12-04T16:20:38;16.40;;;4.38;;
43803;SDS011;29430;52.924;-2.388;2023-12-04T16:25:30;60.45;;;8.57;;
43803;SDS011;29430;52.924;-2.388;2023-12-04T16:30:22;19.55;;;7.05;;
43803;SDS011;29430;52.924;-2.388;2023-12-04T16:35:14;28.77;;;7.53;;
43803;SDS011;29430;52.924;-2.388;2023-12-04T16:40:06;58.40;;;10.27;;
43803;SDS011;29430;52.924;-2.388;2023-12-04T16:44:59;26.90;;;9.15;;
43803;SDS011;29430;52.924;-2.388;2023-12-04T16:49:51;49.70;;;9.80;;
43803;SDS011;29430;52.924;-2.388;2023-12-04T16:54:43;37.67;;;8.05;;
43803;SDS011;29430;52.924;-2.388;2023-12-04T16:59:35;68.35;;;11.35;;
43803;SDS011;29430;52.924;-2.388;2023-12-04T17:04:27;72.32;;;11.30;;
43803;SDS011;29430;52.924;-2.388;2023-12-04T17:09:21;26.98;;;8.93;;
43803;SDS011;29430;52.924;-2.388;2023-12-04T17:14:13;48.72;;;11.32;;
43803;SDS011;29430;52.924;-2.388;2023-12-04T17:19:04;25.35;;;10.48;;
43803;SDS011;29430;52.924;-2.388;2023-12-04T17:23:56;204.80;;;18.38;;
43803;SDS011;29430;52.924;-2.388;2023-12-04T17:28:48;71.90;;;12.77;;
43803;SDS011;29430;52.924;-2.388;2023-12-04T17:33:40;43.20;;;11.73;;
43803;SDS011;29430;52.924;-2.388;2023-12-04T17:38:33;203.23;;;19.08;;
43803;SDS011;29430;52.924;-2.388;2023-12-04T17:43:25;174.85;;;16.88;;
43803;SDS011;29430;52.924;-2.388;2023-12-04T17:48:16;57.80;;;11.52;;
43803;SDS011;29430;52.924;-2.388;2023-12-04T17:53:08;27.15;;;9.57;;
43803;SDS011;29430;52.924;-2.388;2023-12-04T17:58:01;27.88;;;10.05;;
43803;SDS011;29430;52.924;-2.388;2023-12-04T18:02:53;54.47;;;13.75;;
43803;SDS011;29430;52.924;-2.388;2023-12-04T18:07:46;30.80;;;10.02;;
43803;SDS011;29430;52.924;-2.388;2023-12-04T18:12:38;22.27;;;7.75;;
43803;SDS011;29430;52.924;-2.388;2023-12-04T18:17:31;27.10;;;9.02;;
43803;SDS011;29430;52.924;-2.388;2023-12-04T18:22:23;52.45;;;8.27;;
43803;SDS011;29430;52.924;-2.388;2023-12-04T18:27:14;25.90;;;7.50;;
43803;SDS011;29430;52.924;-2.388;2023-12-04T18:32:06;28.20;;;6.50;;
43803;SDS011;29430;52.924;-2.388;2023-12-04T18:37:02;11.13;;;6.22;;
43803;SDS011;29430;52.924;-2.388;2023-12-04T18:42:02;27.27;;;7.50;;
43803;SDS011;29430;52.924;-2.388;2023-12-04T18:46:55;95.15;;;12.70;;
43803;SDS011;29430;52.924;-2.388;2023-12-04T18:51:48;26.50;;;8.00;;
43803;SDS011;29430;52.924;-2.388;2023-12-04T18:56:40;101.25;;;13.57;;
43803;SDS011;29430;52.924;-2.388;2023-12-04T19:01:31;123.18;;;16.92;;
43803;SDS011;29430;52.924;-2.388;2023-12-04T19:06:23;41.92;;;10.75;;
43803;SDS011;29430;52.924;-2.388;2023-12-04T19:11:15;27.58;;;10.57;;
43803;SDS011;29430;52.924;-2.388;2023-12-04T19:16:07;43.22;;;11.02;;
43803;SDS011;29430;52.924;-2.388;2023-12-04T19:20:59;63.90;;;10.68;;
43803;SDS011;29430;52.924;-2.388;2023-12-04T19:25:51;111.57;;;14.82;;
43803;SDS011;29430;52.924;-2.388;2023-12-04T19:30:44;101.25;;;11.85;;
43803;SDS011;29430;52.924;-2.388;2023-12-04T19:35:36;130.82;;;14.18;;
43803;SDS011;29430;52.924;-2.388;2023-12-04T19:40:28;57.90;;;10.20;;
43803;SDS011;29430;52.924;-2.388;2023-12-04T19:45:20;23.40;;;9.10;;
43803;SDS011;29430;52.924;-2.388;2023-12-04T19:50:11;23.52;;;8.32;;
43803;SDS011;29430;52.924;-2.388;2023-12-04T19:55:03;65.13;;;11.13;;
43803;SDS011;29430;52.924;-2.388;2023-12-04T19:59:56;23.73;;;9.50;;
43803;SDS011;29430;52.924;-2.388;2023-12-04T20:04:48;11.27;;;6.85;;
43803;SDS011;29430;52.924;-2.388;2023-12-04T20:09:40;94.25;;;13.35;;
43803;SDS011;29430;52.924;-2.388;2023-12-04T20:14:31;100.95;;;13.75;;
43803;SDS011;29430;52.924;-2.388;2023-12-04T20:19:24;39.10;;;11.30;;
43803;SDS011;29430;52.924;-2.388;2023-12-04T20:24:16;24.25;;;9.30;;
43803;SDS011;29430;52.924;-2.388;2023-12-04T20:29:08;18.48;;;8.93;;
43803;SDS011;29430;52.924;-2.388;2023-12-04T20:34:00;12.80;;;7.63;;
43803;SDS011;29430;52.924;-2.388;2023-12-04T20:38:51;21.45;;;9.43;;
43803;SDS011;29430;52.924;-2.388;2023-12-04T20:43:43;12.38;;;7.60;;
43803;SDS011;29430;52.924;-2.388;2023-12-04T20:48:36;13.13;;;7.78;;
43803;SDS011;29430;52.924;-2.388;2023-12-04T20:53:28;12.27;;;7.38;;
43803;SDS011;29430;52.924;-2.388;2023-12-04T20:58:20;13.45;;;7.80;;
43803;SDS011;29430;52.924;-2.388;2023-12-04T21:03:12;13.25;;;8.43;;
43803;SDS011;29430;52.924;-2.388;2023-12-04T21:08:04;13.85;;;7.95;;
43803;SDS011;29430;52.924;-2.388;2023-12-04T21:12:56;10.65;;;6.63;;
43803;SDS011;29430;52.924;-2.388;2023-12-04T21:17:48;8.88;;;5.82;;
43803;SDS011;29430;52.924;-2.388;2023-12-04T21:22:41;12.20;;;7.03;;
43803;SDS011;29430;52.924;-2.388;2023-12-04T21:27:33;10.98;;;6.70;;
43803;SDS011;29430;52.924;-2.388;2023-12-04T21:32:25;12.05;;;6.90;;
43803;SDS011;29430;52.924;-2.388;2023-12-04T21:37:16;11.40;;;7.05;;
43803;SDS011;29430;52.924;-2.388;2023-12-04T21:42:08;12.52;;;7.45;;
43803;SDS011;29430;52.924;-2.388;2023-12-04T21:47:00;14.57;;;8.52;;
43803;SDS011;29430;52.924;-2.388;2023-12-04T21:51:51;14.95;;;9.15;;
43803;SDS011;29430;52.924;-2.388;2023-12-04T21:56:43;17.38;;;8.05;;
43803;SDS011;29430;52.924;-2.388;2023-12-04T22:01:35;13.25;;;7.25;;
43803;SDS011;29430;52.924;-2.388;2023-12-04T22:06:27;10.77;;;6.88;;
43803;SDS011;29430;52.924;-2.388;2023-12-04T22:11:19;21.80;;;7.82;;
43803;SDS011;29430;52.924;-2.388;2023-12-04T22:16:10;14.55;;;8.63;;
43803;SDS011;29430;52.924;-2.388;2023-12-04T22:21:03;13.98;;;9.02;;
43803;SDS011;29430;52.924;-2.388;2023-12-04T22:25:55;17.05;;;9.73;;
43803;SDS011;29430;52.924;-2.388;2023-12-04T22:30:46;13.50;;;7.78;;
43803;SDS011;29430;52.924;-2.388;2023-12-04T22:35:38;23.58;;;10.93;;
43803;SDS011;29430;52.924;-2.388;2023-12-04T22:40:30;16.45;;;9.98;;
43803;SDS011;29430;52.924;-2.388;2023-12-04T22:45:22;14.88;;;8.43;;
43803;SDS011;29430;52.924;-2.388;2023-12-04T22:50:14;14.73;;;8.35;;
43803;SDS011;29430;52.924;-2.388;2023-12-04T22:55:06;14.25;;;7.47;;
43803;SDS011;29430;52.924;-2.388;2023-12-04T22:59:58;15.65;;;9.15;;
43803;SDS011;29430;52.924;-2.388;2023-12-04T23:04:50;16.77;;;9.05;;
43803;SDS011;29430;52.924;-2.388;2023-12-04T23:09:42;12.63;;;6.70;;
43803;SDS011;29430;52.924;-2.388;2023-12-04T23:14:34;13.75;;;8.10;;
43803;SDS011;29430;52.924;-2.388;2023-12-04T23:19:26;11.50;;;6.53;;
43803;SDS011;29430;52.924;-2.388;2023-12-04T23:24:18;11.82;;;6.18;;
43803;SDS011;29430;52.924;-2.388;2023-12-04T23:29:09;9.48;;;5.57;;
43803;SDS011;29430;52.924;-2.388;2023-12-04T23:34:01;8.90;;;4.40;;
43803;SDS011;29430;52.924;-2.388;2023-12-04T23:38:53;8.68;;;4.63;;
43803;SDS011;29430;52.924;-2.388;2023-12-04T23:43:45;9.75;;;5.45;;
43803;SDS011;29430;52.924;-2.388;2023-12-04T23:48:37;10.63;;;5.65;;
43803;SDS011;29430;52.924;-2.388;2023-12-04T23:53:30;10.93;;;6.45;;
43803;SDS011;29430;52.924;-2.388;2023-12-04T23:58:21;11.30;;;5.82;;
